Crescent Beach, Florida
Current Conditions -  °F | °C
As of 8:41 PM on Tuesday 25 Nov 2014 (Local Time) from KSRQ Reporting Station
Thunderstorm Thunderstorm  
Wind Chill: 74°   Ceiling: 2100
Heat Index: 74°   Visibility: 10mi
Dew Point: 72°   Wind: 17mph
Humidity: 93%   Direction: 200°SSW
Pressure: 29.89"   Gusts: 24mph
Location:  27.2613°N, 82.5431°W
Report Text: KSRQ 260141Z 20015G21KT 10SM TS BKN021 BKN070 OVC110 23/22 A2989 RMK AO2 LTG DSNT ALQDS RAE38 TSB41 P0001 T02330222
Loading
Personal Weather Stations






























Interactive Weather Map New forecast layout! Learn more

10-Day Weather Forecast

Advertisements
Track Severe Weather on mobile